createdAt,value
2023-03-23T00:00:04.033Z,64.3
2023-03-23T00:01:05.021Z,64.2
2023-03-23T00:02:06.343Z,64.1
2023-03-23T00:03:07.533Z,64
2023-03-23T00:04:09.528Z,63.9
2023-03-23T00:05:10.768Z,63.9
2023-03-23T00:06:11.738Z,63.8
2023-03-23T00:07:12.901Z,63.8
2023-03-23T00:08:14.290Z,63.8
2023-03-23T00:09:16.226Z,63.8
2023-03-23T00:10:17.734Z,63.7
2023-03-23T00:11:19.103Z,63.6
2023-03-23T00:12:32.646Z,63.6
2023-03-23T00:13:33.809Z,63.6
2023-03-23T00:14:35.095Z,63.5
2023-03-23T00:15:36.303Z,63.5
2023-03-23T00:16:37.847Z,63.5
2023-03-23T00:17:39.622Z,63.5
2023-03-23T00:18:41.295Z,63.5
2023-03-23T00:19:42.458Z,63.5
2023-03-23T00:20:44.153Z,63.4
2023-03-23T00:21:45.599Z,63.3
2023-03-23T00:22:46.756Z,63.3
2023-03-23T00:23:47.972Z,63.2
2023-03-23T00:24:49.484Z,63.3
2023-03-23T00:25:50.629Z,63.3
2023-03-23T00:26:51.798Z,63.2
2023-03-23T00:27:52.966Z,63.2
2023-03-23T00:28:54.615Z,63.1
2023-03-23T00:29:56.096Z,63.1
2023-03-23T00:30:57.708Z,63.2
2023-03-23T00:31:58.864Z,63.3
2023-03-23T00:33:00.102Z,63.3
2023-03-23T00:34:01.354Z,63.2
2023-03-23T00:35:02.491Z,63.2
2023-03-23T00:36:03.920Z,63.2
2023-03-23T00:37:05.218Z,63.2
2023-03-23T00:38:07.315Z,63.2
2023-03-23T00:39:09.271Z,63
2023-03-23T00:40:10.435Z,62.9
2023-03-23T00:41:11.599Z,62.9
2023-03-23T00:42:12.946Z,62.9
2023-03-23T00:43:14.419Z,62.9
2023-03-23T00:44:23.851Z,63
2023-03-23T00:45:25.460Z,63.1
2023-03-23T00:46:26.629Z,63.1
2023-03-23T00:47:27.790Z,63.1
2023-03-23T00:48:30.427Z,63.2
2023-03-23T00:49:31.870Z,63.2
2023-03-23T00:50:39.761Z,63.3
2023-03-23T00:51:40.927Z,63.4
2023-03-23T00:52:42.508Z,63.5
2023-03-23T00:53:43.679Z,63.6
2023-03-23T00:54:44.978Z,63.6
2023-03-23T00:55:47.024Z,63.6
2023-03-23T00:56:48.273Z,63.6
2023-03-23T00:57:52.962Z,63.6
2023-03-23T00:58:54.124Z,63.6
2023-03-23T01:00:06.752Z,63.6
2023-03-23T01:01:07.988Z,63.7
2023-03-23T01:02:09.168Z,63.8
2023-03-23T01:03:10.526Z,63.8
2023-03-23T01:04:11.562Z,63.9
2023-03-23T01:05:13.060Z,63.9
2023-03-23T01:06:14.459Z,63.9
2023-03-23T01:07:15.779Z,63.9
2023-03-23T01:08:16.629Z,63.9
2023-03-23T01:09:17.984Z,63.9
2023-03-23T01:10:21.875Z,63.9
2023-03-23T01:11:23.176Z,63.9
2023-03-23T01:12:24.566Z,63.9
2023-03-23T01:13:25.731Z,63.9
2023-03-23T01:14:26.897Z,63.9
2023-03-23T01:15:28.428Z,63.9
2023-03-23T01:16:29.785Z,63.9
2023-03-23T01:17:31.450Z,63.8
2023-03-23T01:18:34.838Z,63.8
2023-03-23T01:19:36.148Z,63.8
2023-03-23T01:20:37.436Z,63.7
2023-03-23T01:21:39.159Z,63.7
2023-03-23T01:22:40.131Z,63.6
2023-03-23T01:23:41.291Z,63.6
2023-03-23T01:24:42.866Z,63.6
2023-03-23T01:25:44.034Z,63.5
2023-03-23T01:26:45.195Z,63.5
2023-03-23T01:27:46.475Z,63.5
2023-03-23T01:28:47.777Z,63.5
2023-03-23T01:29:48.937Z,63.4
2023-03-23T01:30:50.102Z,63.4
2023-03-23T01:31:51.074Z,63.4
2023-03-23T01:32:52.238Z,63.4
2023-03-23T01:33:54.063Z,63.3
2023-03-23T01:34:55.404Z,63.3
2023-03-23T01:35:56.801Z,63.3
2023-03-23T01:36:58.517Z,63.3
2023-03-23T01:38:00.268Z,63.2
2023-03-23T01:39:01.238Z,63.2
2023-03-23T01:40:02.403Z,63.2
2023-03-23T01:41:04.177Z,63.2
2023-03-23T01:42:05.393Z,63.2
2023-03-23T01:43:07.263Z,63.2
2023-03-23T01:44:08.443Z,63.2
2023-03-23T01:45:09.852Z,63.3
2023-03-23T01:46:11.588Z,63.3
2023-03-23T01:47:12.764Z,63.3
2023-03-23T01:48:13.929Z,63.4
2023-03-23T01:49:18.647Z,63.4
2023-03-23T01:50:19.611Z,63.4
2023-03-23T01:51:36.655Z,63.4
2023-03-23T01:52:41.532Z,63.4
2023-03-23T01:53:43.344Z,63.5
2023-03-23T01:54:44.718Z,63.5
2023-03-23T01:55:46.529Z,63.5
2023-03-23T01:56:47.676Z,63.5
2023-03-23T01:57:48.948Z,63.5
2023-03-23T01:58:50.238Z,63.5
2023-03-23T01:59:51.404Z,63.5
2023-03-23T02:00:52.486Z,63.5
2023-03-23T02:01:53.644Z,63.6
2023-03-23T02:02:54.811Z,63.6
2023-03-23T02:03:56.870Z,63.6
2023-03-23T02:04:58.309Z,63.7
2023-03-23T02:05:59.499Z,63.8
2023-03-23T02:07:00.908Z,63.8
2023-03-23T02:08:02.734Z,63.8
2023-03-23T02:09:11.406Z,63.9
2023-03-23T02:10:12.579Z,63.9
2023-03-23T02:11:23.133Z,64
2023-03-23T02:12:24.296Z,64.1
2023-03-23T02:13:25.464Z,64.2
2023-03-23T02:14:26.799Z,64.3
2023-03-23T02:15:27.965Z,64.5
2023-03-23T02:16:29.135Z,64.6
2023-03-23T02:17:30.506Z,64.8
2023-03-23T02:18:32.153Z,64.9
2023-03-23T02:19:33.338Z,65
2023-03-23T02:20:34.626Z,65.2
2023-03-23T02:21:35.796Z,65.4
2023-03-23T02:22:37.057Z,65.5
2023-03-23T02:23:38.745Z,65.6
2023-03-23T02:24:39.909Z,65.7
2023-03-23T02:25:41.561Z,65.8
2023-03-23T02:26:42.868Z,65.9
2023-03-23T02:27:44.041Z,66.1
2023-03-23T02:28:45.210Z,66.2
2023-03-23T02:29:46.580Z,66.2
2023-03-23T02:30:48.264Z,66.3
2023-03-23T02:31:50.309Z,66.4
2023-03-23T02:32:51.472Z,66.5
2023-03-23T02:33:53.289Z,66.6
2023-03-23T02:34:55.001Z,66.7
2023-03-23T02:35:56.051Z,66.8
2023-03-23T02:36:57.370Z,66.9
2023-03-23T02:37:58.558Z,67.1
2023-03-23T02:39:00.508Z,67.2
2023-03-23T02:40:01.840Z,67.3
2023-03-23T02:41:03.384Z,67.4
2023-03-23T02:42:16.524Z,67.5
2023-03-23T02:43:17.801Z,67.6
2023-03-23T02:44:19.138Z,67.7
2023-03-23T02:45:20.319Z,67.8
2023-03-23T02:46:22.324Z,67.9
2023-03-23T02:47:23.988Z,68
2023-03-23T02:48:25.750Z,68.2
2023-03-23T02:49:27.046Z,68.2
2023-03-23T02:50:28.297Z,68.3
2023-03-23T02:51:44.069Z,68.4
2023-03-23T02:52:45.224Z,68.5
2023-03-23T02:53:46.473Z,68.6
2023-03-23T02:54:47.814Z,68.7
2023-03-23T02:55:48.973Z,68.8
2023-03-23T02:56:50.139Z,68.8
2023-03-23T02:57:51.510Z,68.8
2023-03-23T02:58:53.054Z,68.9
2023-03-23T02:59:54.228Z,68.9
2023-03-23T03:00:55.388Z,69
2023-03-23T03:01:57.073Z,69
2023-03-23T03:02:58.698Z,69.1
2023-03-23T03:04:00.025Z,69.2
2023-03-23T03:05:01.920Z,69.2
2023-03-23T03:06:03.964Z,69.3
2023-03-23T03:07:05.400Z,69.3
2023-03-23T03:08:06.410Z,69.4
2023-03-23T03:09:08.217Z,69.4
2023-03-23T03:10:18.084Z,69.4
2023-03-23T03:11:19.327Z,69.5
2023-03-23T03:12:20.657Z,69.6
2023-03-23T03:13:21.911Z,69.6
2023-03-23T03:14:22.934Z,69.7
2023-03-23T03:15:24.679Z,69.7
2023-03-23T03:16:25.946Z,69.7
2023-03-23T03:17:27.490Z,69.7
2023-03-23T03:18:28.459Z,69.7
2023-03-23T03:19:29.755Z,69.8
2023-03-23T03:20:32.121Z,69.8
2023-03-23T03:21:34.283Z,69.8
2023-03-23T03:22:35.585Z,69.9
2023-03-23T03:23:37.564Z,69.9
2023-03-23T03:24:38.765Z,69.9
2023-03-23T03:25:40.764Z,70
2023-03-23T03:26:42.362Z,70
2023-03-23T03:27:44.017Z,70
2023-03-23T03:28:45.896Z,70
2023-03-23T03:29:47.541Z,70
2023-03-23T03:30:49.399Z,70.1
2023-03-23T03:31:50.559Z,70.1
2023-03-23T03:32:52.076Z,70.1
2023-03-23T03:33:53.524Z,70.2
2023-03-23T03:34:55.465Z,70.2
2023-03-23T03:35:56.963Z,70.2
2023-03-23T03:36:58.220Z,70.2
2023-03-23T03:37:59.755Z,70.3
2023-03-23T03:39:00.921Z,70.3
2023-03-23T03:40:02.797Z,70.3
2023-03-23T03:41:04.219Z,70.4
2023-03-23T03:42:06.041Z,70.4
2023-03-23T03:43:07.267Z,70.5
2023-03-23T03:44:08.923Z,70.5
2023-03-23T03:45:13.467Z,70.5
2023-03-23T03:46:14.857Z,70.6
2023-03-23T03:47:16.197Z,70.6
2023-03-23T03:48:17.982Z,70.7
2023-03-23T03:49:19.151Z,70.8
2023-03-23T03:50:20.315Z,70.8
2023-03-23T03:51:21.135Z,70.9
2023-03-23T03:52:22.621Z,70.9
2023-03-23T03:53:30.074Z,71
2023-03-23T03:54:31.379Z,71.1
2023-03-23T03:55:32.977Z,71.1
2023-03-23T03:56:34.138Z,71.2
2023-03-23T03:57:35.300Z,71.2
2023-03-23T03:58:36.595Z,71.3
2023-03-23T03:59:38.857Z,71.3
2023-03-23T04:00:41.723Z,71.4
2023-03-23T04:01:43.266Z,71.4
2023-03-23T04:02:45.218Z,71.5
2023-03-23T04:03:46.559Z,71.5
2023-03-23T04:04:48.309Z,71.5
2023-03-23T04:05:59.376Z,71.5
2023-03-23T04:07:00.982Z,71.6
2023-03-23T04:08:10.553Z,71.7
2023-03-23T04:09:11.864Z,71.7
2023-03-23T04:10:33.141Z,71.8
2023-03-23T04:11:34.425Z,72
2023-03-23T04:12:35.733Z,72.1
2023-03-23T04:13:37.113Z,72.1
2023-03-23T04:14:38.339Z,72.1
2023-03-23T04:16:11.632Z,72.2
2023-03-23T04:17:13.440Z,72.3
2023-03-23T04:18:15.433Z,72.3
2023-03-23T04:19:16.596Z,72.4
2023-03-23T04:20:32.857Z,72.4
2023-03-23T04:21:35.078Z,72.5
2023-03-23T04:22:36.349Z,72.5
2023-03-23T04:23:38.402Z,72.5
2023-03-23T04:24:58.177Z,72.5
2023-03-23T04:25:59.288Z,72.6
2023-03-23T04:27:03.703Z,72.7
2023-03-23T04:28:05.329Z,72.7
2023-03-23T04:29:07.522Z,72.8
2023-03-23T04:30:09.234Z,72.8
2023-03-23T04:31:10.410Z,72.8
2023-03-23T04:32:12.560Z,72.9
2023-03-23T04:33:23.986Z,72.9
2023-03-23T04:34:25.278Z,73
2023-03-23T04:35:26.708Z,73.1
2023-03-23T04:36:58.058Z,73.1
2023-03-23T04:37:59.670Z,73.3
2023-03-23T04:39:01.102Z,73.4
2023-03-23T04:40:02.276Z,73.6
2023-03-23T04:41:03.433Z,73.6
2023-03-23T04:42:04.639Z,73.6
2023-03-23T04:43:05.794Z,73.7
2023-03-23T04:44:06.932Z,73.7
2023-03-23T04:45:08.099Z,73.8
2023-03-23T04:46:09.265Z,73.9
2023-03-23T04:47:10.721Z,74
2023-03-23T04:48:12.043Z,74
2023-03-23T04:49:13.475Z,74
2023-03-23T04:50:14.615Z,74.1
2023-03-23T04:51:16.072Z,74.2
2023-03-23T04:52:17.041Z,74.2
2023-03-23T04:53:18.207Z,74.3
2023-03-23T04:54:19.574Z,74.3
2023-03-23T04:55:20.742Z,74.4
2023-03-23T04:56:22.160Z,74.4
2023-03-23T04:57:23.653Z,74.5
2023-03-23T04:58:25.123Z,74.5
2023-03-23T05:00:30.952Z,74.7
2023-03-23T05:01:32.100Z,74.7
2023-03-23T05:02:33.318Z,74.7
2023-03-23T05:03:34.481Z,74.8
2023-03-23T05:04:35.649Z,74.8
2023-03-23T05:05:36.817Z,74.9
2023-03-23T05:06:37.982Z,74.9
2023-03-23T05:07:39.144Z,74.9
2023-03-23T05:08:40.317Z,75
2023-03-23T05:09:41.475Z,75
2023-03-23T05:10:43.718Z,75.1
2023-03-23T05:11:45.097Z,75.1
2023-03-23T05:12:46.260Z,75.1
2023-03-23T05:13:47.449Z,75.2
2023-03-23T05:14:48.618Z,75.2
2023-03-23T05:15:51.328Z,75.3
2023-03-23T05:16:52.496Z,75.3
2023-03-23T05:17:53.658Z,75.4
2023-03-23T05:18:54.838Z,75.5
2023-03-23T05:19:55.991Z,75.5
2023-03-23T05:20:57.161Z,75.6
2023-03-23T05:21:58.321Z,75.6
2023-03-23T05:22:59.488Z,75.6
2023-03-23T05:24:00.658Z,75.7
2023-03-23T05:25:01.819Z,75.7
2023-03-23T05:26:02.984Z,75.8
2023-03-23T05:27:04.149Z,75.8
2023-03-23T05:28:05.316Z,75.9
2023-03-23T05:29:06.514Z,75.9
2023-03-23T05:30:07.666Z,76
2023-03-23T05:31:08.822Z,76.1
2023-03-23T05:32:09.992Z,76.1
2023-03-23T05:33:11.151Z,76.2
2023-03-23T05:34:12.316Z,76.3
2023-03-23T05:35:13.485Z,76.3
2023-03-23T05:36:14.728Z,76.4
2023-03-23T05:37:15.914Z,76.5
2023-03-23T05:38:17.086Z,76.5
2023-03-23T05:39:18.248Z,76.6
2023-03-23T05:40:19.417Z,76.6
2023-03-23T05:41:20.591Z,76.7
2023-03-23T05:42:21.748Z,76.7
2023-03-23T05:43:22.911Z,76.8
2023-03-23T05:44:24.097Z,76.8
2023-03-23T05:45:25.243Z,77
2023-03-23T05:46:26.561Z,77
2023-03-23T05:47:27.725Z,77.1
2023-03-23T05:48:28.888Z,77.2
2023-03-23T05:49:30.059Z,77.2
2023-03-23T05:50:31.219Z,77.3
2023-03-23T05:51:32.388Z,77.3
2023-03-23T05:52:33.817Z,77.3
2023-03-23T05:53:35.104Z,77.4
2023-03-23T05:54:36.273Z,77.4
2023-03-23T05:55:37.442Z,77.5
2023-03-23T05:56:38.603Z,77.5
2023-03-23T05:57:39.773Z,77.5
2023-03-23T05:58:40.937Z,77.6
2023-03-23T05:59:44.184Z,77.6
2023-03-23T06:00:45.646Z,77.6
2023-03-23T06:01:51.150Z,77.6
2023-03-23T06:02:52.593Z,77.6
2023-03-23T06:03:54.020Z,77.7
2023-03-23T06:04:55.299Z,77.7
2023-03-23T06:05:56.712Z,77.7
2023-03-23T06:06:57.892Z,77.7
2023-03-23T06:07:59.053Z,77.7
2023-03-23T06:09:00.218Z,77.7
2023-03-23T06:10:01.405Z,77.7
2023-03-23T06:11:02.558Z,77.7
2023-03-23T06:12:03.750Z,77.7
2023-03-23T06:13:05.054Z,77.8
2023-03-23T06:14:06.221Z,77.8
2023-03-23T06:15:07.410Z,77.8
2023-03-23T06:16:08.548Z,77.8
2023-03-23T06:17:09.717Z,77.7
2023-03-23T06:18:10.887Z,77.7
2023-03-23T06:19:12.049Z,77.7
2023-03-23T06:20:13.215Z,77.7
2023-03-23T06:21:19.508Z,77.7
2023-03-23T06:22:20.684Z,77.7
2023-03-23T06:23:21.850Z,77.6
2023-03-23T06:24:23.012Z,77.6
2023-03-23T06:25:24.183Z,77.6
2023-03-23T06:26:25.340Z,77.5
2023-03-23T06:27:26.509Z,77.5
2023-03-23T06:28:27.745Z,77.5
2023-03-23T06:29:28.873Z,77.4
2023-03-23T06:30:30.179Z,77.4
2023-03-23T06:31:31.397Z,77.3
2023-03-23T06:32:32.561Z,77.3
2023-03-23T06:33:33.731Z,77.3
2023-03-23T06:34:34.905Z,77.3
2023-03-23T06:35:36.064Z,77.3
2023-03-23T06:36:37.236Z,77.3
2023-03-23T06:37:38.435Z,77.3
2023-03-23T06:38:39.606Z,77.3
2023-03-23T06:39:40.773Z,77.3
2023-03-23T06:40:41.937Z,77.3
2023-03-23T06:41:43.104Z,77.3
2023-03-23T06:42:44.269Z,77.3
2023-03-23T06:43:45.436Z,77.3
2023-03-23T06:44:46.604Z,77.3
2023-03-23T06:45:47.822Z,77.3
2023-03-23T06:46:48.948Z,77.3
2023-03-23T06:47:50.112Z,77.3
2023-03-23T06:48:51.278Z,77.3
2023-03-23T06:49:52.443Z,77.3
2023-03-23T06:50:53.617Z,77.3
2023-03-23T06:51:54.777Z,77.3
2023-03-23T06:52:59.943Z,77.3
2023-03-23T06:54:00.916Z,77.3
2023-03-23T06:55:02.084Z,77.3
2023-03-23T06:56:03.248Z,77.3
2023-03-23T06:57:04.407Z,77.3
2023-03-23T06:58:05.578Z,77.3
2023-03-23T06:59:06.743Z,77.3
2023-03-23T07:00:10.848Z,77.3
2023-03-23T07:01:12.045Z,77.3
2023-03-23T07:02:13.181Z,77.3
2023-03-23T07:03:14.341Z,77.3
2023-03-23T07:04:15.507Z,77.3
2023-03-23T07:05:16.685Z,77.2
2023-03-23T07:06:17.848Z,77.1
2023-03-23T07:07:19.006Z,77.1
2023-03-23T07:08:20.174Z,77
2023-03-23T07:09:43.015Z,77
2023-03-23T07:10:44.480Z,77
2023-03-23T07:11:45.641Z,76.9
2023-03-23T07:12:46.805Z,76.9
2023-03-23T07:13:47.975Z,76.9
2023-03-23T07:14:49.139Z,76.8
2023-03-23T07:15:50.305Z,76.8
2023-03-23T07:16:51.496Z,76.7
2023-03-23T07:17:52.705Z,76.6
2023-03-23T07:18:53.892Z,76.6
2023-03-23T07:19:55.040Z,76.5
2023-03-23T07:20:56.203Z,76.4
2023-03-23T07:21:57.371Z,76.3
2023-03-23T07:22:58.721Z,76.2
2023-03-23T07:23:59.884Z,76.1
2023-03-23T07:25:01.056Z,76
2023-03-23T07:26:02.248Z,75.9
2023-03-23T07:27:03.392Z,75.9
2023-03-23T07:28:04.557Z,75.8
2023-03-23T07:29:05.721Z,75.7
2023-03-23T07:30:06.887Z,75.6
2023-03-23T07:31:08.049Z,75.5
2023-03-23T07:32:09.244Z,75.4
2023-03-23T07:33:10.381Z,75.3
2023-03-23T07:34:11.871Z,75.2
2023-03-23T07:35:13.248Z,75.1
2023-03-23T07:36:14.447Z,75.1
2023-03-23T07:37:15.605Z,75.1
2023-03-23T07:38:16.774Z,75
2023-03-23T07:39:17.935Z,75
2023-03-23T07:40:19.101Z,74.9
2023-03-23T07:41:20.266Z,74.9
2023-03-23T07:42:21.434Z,74.9
2023-03-23T07:43:22.597Z,74.9
2023-03-23T07:44:23.766Z,75
2023-03-23T07:45:24.930Z,75
2023-03-23T07:46:28.995Z,75.1
2023-03-23T07:47:35.122Z,75.1
2023-03-23T07:48:36.266Z,75.2
2023-03-23T07:49:37.452Z,75.2
2023-03-23T07:50:38.625Z,75.2
2023-03-23T07:51:39.782Z,75.2
2023-03-23T07:52:40.948Z,75.1
2023-03-23T07:53:42.113Z,75.1
2023-03-23T07:54:43.329Z,75.1
2023-03-23T07:55:44.985Z,75
2023-03-23T07:56:46.151Z,75
2023-03-23T07:57:47.315Z,75
2023-03-23T07:58:48.485Z,75
2023-03-23T07:59:49.650Z,75
2023-03-23T08:00:50.816Z,75.1
2023-03-23T08:01:51.982Z,75.1
2023-03-23T08:02:53.171Z,75
2023-03-23T08:03:54.312Z,75
2023-03-23T08:04:55.510Z,75
2023-03-23T08:05:56.676Z,74.9
2023-03-23T08:06:57.840Z,74.9
2023-03-23T08:07:59.040Z,74.8
2023-03-23T08:09:00.174Z,74.8
2023-03-23T08:10:01.712Z,74.8
2023-03-23T08:11:02.877Z,74.7
2023-03-23T08:12:04.043Z,74.7
2023-03-23T08:13:05.207Z,74.6
2023-03-23T08:14:06.378Z,74.6
2023-03-23T08:15:07.544Z,74.5
2023-03-23T08:16:08.703Z,74.4
2023-03-23T08:17:10.322Z,74.3
2023-03-23T08:18:11.518Z,74.2
2023-03-23T08:19:12.650Z,74.1
2023-03-23T08:20:13.821Z,74
2023-03-23T08:21:14.986Z,74
2023-03-23T08:22:16.311Z,73.9
2023-03-23T08:23:17.473Z,73.8
2023-03-23T08:24:18.637Z,73.7
2023-03-23T08:25:19.827Z,73.6
2023-03-23T08:26:20.991Z,73.4
2023-03-23T08:27:22.158Z,73.3
2023-03-23T08:28:23.325Z,73.2
2023-03-23T08:29:24.486Z,73.1
2023-03-23T08:30:25.657Z,72.9
2023-03-23T08:31:26.943Z,72.7
2023-03-23T08:32:28.112Z,72.4
2023-03-23T08:33:29.314Z,72.3
2023-03-23T08:34:30.451Z,72.2
2023-03-23T08:35:31.615Z,72.1
2023-03-23T08:36:32.783Z,72
2023-03-23T08:37:33.945Z,71.9
2023-03-23T08:38:35.113Z,71.8
2023-03-23T08:39:36.301Z,71.7
2023-03-23T08:40:37.469Z,71.5
2023-03-23T08:41:38.852Z,71.3
2023-03-23T08:42:41.279Z,71.1
2023-03-23T08:43:43.506Z,71
2023-03-23T08:44:44.652Z,70.8
2023-03-23T08:45:45.819Z,70.6
2023-03-23T08:46:46.989Z,70.3
2023-03-23T08:47:48.261Z,70
2023-03-23T08:48:49.453Z,69.9
2023-03-23T08:49:50.595Z,69.8
2023-03-23T08:50:51.770Z,69.6
2023-03-23T08:51:52.937Z,69.5
2023-03-23T08:52:54.110Z,69.4
2023-03-23T08:53:55.279Z,69.4
2023-03-23T08:54:56.448Z,69.1
2023-03-23T08:55:57.611Z,69.1
2023-03-23T08:56:58.778Z,69.1
2023-03-23T08:57:59.943Z,69
2023-03-23T08:59:01.110Z,68.8
2023-03-23T09:00:02.292Z,68.7
2023-03-23T09:01:03.438Z,68.7
2023-03-23T09:02:04.606Z,68.6
2023-03-23T09:03:05.766Z,68.5
2023-03-23T09:04:06.963Z,68.4
2023-03-23T09:05:08.105Z,68.4
2023-03-23T09:06:09.482Z,68.2
2023-03-23T09:07:10.647Z,67.9
2023-03-23T09:08:11.816Z,67.9
2023-03-23T09:09:12.979Z,67.9
2023-03-23T09:10:14.146Z,67.8
2023-03-23T09:11:15.563Z,67.7
2023-03-23T09:12:16.727Z,67.2
2023-03-23T09:13:17.904Z,67
2023-03-23T09:14:19.068Z,67
2023-03-23T09:15:38.860Z,66.7
2023-03-23T09:16:42.294Z,66.5
2023-03-23T09:17:43.459Z,66.5
2023-03-23T09:18:44.617Z,66.4
2023-03-23T09:19:45.836Z,66.4
2023-03-23T09:20:56.757Z,66.1
2023-03-23T09:21:58.967Z,66.1
2023-03-23T09:23:00.132Z,65.7
2023-03-23T09:24:01.298Z,65.5
2023-03-23T09:25:02.466Z,65.4
2023-03-23T09:26:03.634Z,65.5
2023-03-23T09:27:04.797Z,65.6
2023-03-23T09:28:05.972Z,65.5
2023-03-23T09:29:07.132Z,65.5
2023-03-23T09:30:08.301Z,65.6
2023-03-23T09:31:09.470Z,65.6
2023-03-23T09:32:10.629Z,65.3
2023-03-23T09:33:11.793Z,65.3
2023-03-23T09:34:12.960Z,65.1
2023-03-23T09:35:14.178Z,65.1
2023-03-23T09:36:15.413Z,64.9
2023-03-23T09:37:16.611Z,65
2023-03-23T09:38:17.811Z,64.9
2023-03-23T09:39:18.979Z,64.8
2023-03-23T09:40:20.158Z,64.8
2023-03-23T09:41:21.323Z,64.8
2023-03-23T09:42:22.478Z,64.9
2023-03-23T09:43:23.640Z,64.7
2023-03-23T09:44:24.807Z,64.4
2023-03-23T09:45:25.977Z,64.3
2023-03-23T09:46:27.148Z,64.2
2023-03-23T09:47:28.323Z,64
2023-03-23T09:48:29.474Z,63.8
2023-03-23T09:49:42.762Z,63.5
2023-03-23T09:50:43.965Z,63.4
2023-03-23T09:51:45.096Z,63
2023-03-23T09:52:46.315Z,62.9
2023-03-23T09:53:47.453Z,62.8
2023-03-23T09:54:48.621Z,62.7
2023-03-23T09:55:49.784Z,62.6
2023-03-23T09:56:50.950Z,62.5
2023-03-23T09:57:52.114Z,62.3
2023-03-23T09:58:53.283Z,62.2
2023-03-23T09:59:54.450Z,62.1
2023-03-23T10:00:55.702Z,62.1
2023-03-23T10:01:56.842Z,61.9
2023-03-23T10:02:58.012Z,61.6
2023-03-23T10:03:59.186Z,61.6
2023-03-23T10:05:00.340Z,61.6
2023-03-23T10:06:01.533Z,61.6
2023-03-23T10:07:02.680Z,61.5
2023-03-23T10:08:03.858Z,61.4
2023-03-23T10:09:05.023Z,61.5
2023-03-23T10:10:06.186Z,61.4
2023-03-23T10:11:07.356Z,61.5
2023-03-23T10:12:08.523Z,61.7
2023-03-23T10:13:10.100Z,61.8
2023-03-23T10:14:11.261Z,62
2023-03-23T10:15:12.435Z,61.9
2023-03-23T10:16:13.598Z,61.6
2023-03-23T10:17:15.008Z,61.6
2023-03-23T10:18:16.173Z,61.6
2023-03-23T10:19:17.342Z,61.6
2023-03-23T10:20:18.508Z,61.7
2023-03-23T10:21:19.700Z,61.7
2023-03-23T10:22:20.834Z,61.5
2023-03-23T10:23:22.050Z,61.3
2023-03-23T10:24:23.436Z,61.1
2023-03-23T10:25:24.587Z,60.4
2023-03-23T10:26:25.760Z,60.3
2023-03-23T10:27:26.921Z,60.5
2023-03-23T10:28:28.100Z,60.5
2023-03-23T10:29:29.261Z,60.4
2023-03-23T10:30:30.487Z,60.4
2023-03-23T10:31:31.620Z,60.4
2023-03-23T10:32:32.784Z,60.4
2023-03-23T10:33:33.952Z,60.4
2023-03-23T10:34:35.114Z,60.4
2023-03-23T10:35:36.309Z,60.4
2023-03-23T10:36:37.565Z,60.5
2023-03-23T10:37:38.703Z,60.4
2023-03-23T10:38:39.894Z,59.4
2023-03-23T10:39:41.063Z,59.3
2023-03-23T10:40:42.222Z,58.8
2023-03-23T10:41:43.389Z,58.7
2023-03-23T10:42:44.588Z,58.4
2023-03-23T10:43:45.743Z,58.4
2023-03-23T10:44:46.910Z,58.5
2023-03-23T10:46:01.710Z,58.3
2023-03-23T10:47:03.242Z,57.5
2023-03-23T10:48:04.407Z,57.4
2023-03-23T10:49:05.574Z,57.5
2023-03-23T10:50:06.748Z,57.5
2023-03-23T10:51:07.910Z,57.3
2023-03-23T10:52:09.106Z,57.3
2023-03-23T10:53:10.273Z,57.1
2023-03-23T10:54:11.893Z,56.9
2023-03-23T10:55:13.056Z,56.5
2023-03-23T10:56:14.340Z,56
2023-03-23T10:57:15.498Z,55.8
2023-03-23T10:58:16.663Z,56
2023-03-23T10:59:20.469Z,56.1
2023-03-23T11:00:22.183Z,56.2
2023-03-23T11:01:23.408Z,56.4
2023-03-23T11:02:30.357Z,56.6
2023-03-23T11:03:31.507Z,56.7
2023-03-23T11:04:32.931Z,56.7
2023-03-23T11:05:34.089Z,56.6
2023-03-23T11:06:35.257Z,56.5
2023-03-23T11:07:36.450Z,56.6
2023-03-23T11:08:37.586Z,56.8
2023-03-23T11:09:38.778Z,57
2023-03-23T11:10:39.737Z,57.2
2023-03-23T11:11:40.906Z,57.3
2023-03-23T11:12:42.071Z,57.5
2023-03-23T11:13:43.599Z,57.7
2023-03-23T11:14:44.973Z,57.8
2023-03-23T11:15:46.154Z,57.9
2023-03-23T11:16:47.310Z,58.1
2023-03-23T11:17:48.477Z,58.2
2023-03-23T11:18:49.635Z,58.2
2023-03-23T11:19:50.807Z,58.2
2023-03-23T11:20:51.973Z,58.2
2023-03-23T11:21:53.134Z,58
2023-03-23T11:22:54.332Z,58
2023-03-23T11:24:10.673Z,58
2023-03-23T11:25:14.897Z,58
2023-03-23T11:26:16.042Z,57.9
2023-03-23T11:27:17.213Z,57.8
2023-03-23T11:28:18.388Z,57.5
2023-03-23T11:29:19.546Z,57.2
2023-03-23T11:30:20.716Z,57.1
2023-03-23T11:31:21.878Z,57.2
2023-03-23T11:32:23.051Z,57
2023-03-23T11:33:26.194Z,56.9
2023-03-23T11:34:27.383Z,56.9
2023-03-23T11:35:28.557Z,56.8
2023-03-23T11:36:29.712Z,56.9
2023-03-23T11:37:31.011Z,56.9
2023-03-23T11:38:32.292Z,57
2023-03-23T11:39:33.472Z,56.8
2023-03-23T11:40:34.650Z,56.6
2023-03-23T11:41:35.817Z,56.6
2023-03-23T11:42:36.984Z,56.6
2023-03-23T11:43:38.149Z,56.5
2023-03-23T11:44:39.312Z,56.5
2023-03-23T11:45:40.963Z,56.5
2023-03-23T11:46:42.232Z,56.4
2023-03-23T11:47:43.394Z,56.2
2023-03-23T11:48:44.563Z,56.1
2023-03-23T11:49:45.727Z,55.8
2023-03-23T11:50:46.892Z,55.7
2023-03-23T11:51:48.060Z,55.8
2023-03-23T11:52:49.231Z,56
2023-03-23T11:53:50.420Z,56.2
2023-03-23T11:54:51.562Z,56.4
2023-03-23T11:55:52.897Z,56.5
2023-03-23T11:56:54.186Z,56.6
2023-03-23T11:57:55.347Z,56.7
2023-03-23T11:58:56.513Z,56.8
2023-03-23T11:59:57.676Z,56.8
2023-03-23T12:00:58.841Z,56.9
2023-03-23T12:02:17.427Z,56.8
2023-03-23T12:03:18.686Z,56.5
2023-03-23T12:04:19.853Z,56.6
2023-03-23T12:05:21.019Z,56.5
2023-03-23T12:06:22.197Z,56.4
2023-03-23T12:07:23.365Z,56.1
2023-03-23T12:08:24.531Z,55.7
2023-03-23T12:09:25.722Z,55.8
2023-03-23T12:11:53.406Z,55.5
2023-03-23T12:12:54.571Z,55.6
2023-03-23T12:13:59.406Z,55.7
2023-03-23T12:15:00.603Z,55.3
2023-03-23T12:16:01.777Z,55
2023-03-23T12:17:03.365Z,55.1
2023-03-23T12:18:04.527Z,55
2023-03-23T12:19:05.696Z,55
2023-03-23T12:20:06.863Z,55
2023-03-23T12:21:15.230Z,55.1
2023-03-23T12:22:16.398Z,55
2023-03-23T12:23:17.561Z,54.9
2023-03-23T12:24:18.727Z,54.8
2023-03-23T12:25:19.928Z,54.8
2023-03-23T12:26:21.059Z,54.6
2023-03-23T12:27:22.323Z,54.3
2023-03-23T12:28:23.496Z,54.1
2023-03-23T12:29:24.658Z,53.8
2023-03-23T12:30:25.851Z,53.6
2023-03-23T12:31:26.993Z,53.8
2023-03-23T12:32:28.159Z,53.8
2023-03-23T12:33:29.327Z,53.8
2023-03-23T12:34:30.492Z,53.8
2023-03-23T12:35:31.657Z,54
2023-03-23T12:36:32.972Z,54.3
2023-03-23T12:37:34.130Z,54.5
2023-03-23T12:38:35.307Z,54.5
2023-03-23T12:39:36.463Z,54.3
2023-03-23T12:40:47.380Z,54.4
2023-03-23T12:41:48.533Z,54.6
2023-03-23T12:42:49.693Z,54.5
2023-03-23T12:43:50.861Z,54.4
2023-03-23T12:44:52.024Z,54.1
2023-03-23T12:45:53.192Z,53.5
2023-03-23T12:46:54.359Z,53.3
2023-03-23T12:47:55.522Z,53.4
2023-03-23T12:48:56.691Z,53.4
2023-03-23T12:49:57.856Z,53.1
2023-03-23T12:50:59.272Z,52.6
2023-03-23T12:52:00.245Z,52.4
2023-03-23T12:53:01.409Z,52.5
2023-03-23T12:54:02.577Z,52.5
2023-03-23T12:55:03.739Z,52.7
2023-03-23T12:56:04.943Z,52.7
2023-03-23T12:57:06.075Z,52.3
2023-03-23T12:58:07.289Z,52.1
2023-03-23T12:59:08.465Z,52
2023-03-23T13:00:09.617Z,51.7
2023-03-23T13:01:10.792Z,51
2023-03-23T13:02:11.947Z,50.7
2023-03-23T13:03:13.121Z,50.4
2023-03-23T13:04:14.131Z,50.4
2023-03-23T13:05:15.305Z,50.6
2023-03-23T13:06:16.474Z,50.6
2023-03-23T13:07:17.642Z,50.7
2023-03-23T13:08:18.747Z,50.3
2023-03-23T13:09:19.913Z,50.2
2023-03-23T13:10:21.077Z,50.1
2023-03-23T13:11:22.275Z,50
2023-03-23T13:12:23.409Z,50
2023-03-23T13:13:24.583Z,50.1
2023-03-23T13:14:25.752Z,49.4
2023-03-23T13:15:26.724Z,49.7
2023-03-23T13:16:27.885Z,49.8
2023-03-23T13:17:29.079Z,49.7
2023-03-23T13:18:30.216Z,49.4
2023-03-23T13:19:31.185Z,49.1
2023-03-23T13:20:32.352Z,49.1
2023-03-23T13:21:37.553Z,49.4
2023-03-23T13:22:40.761Z,49.6
2023-03-23T13:23:41.931Z,49.5
2023-03-23T13:24:43.095Z,49.6
2023-03-23T13:25:44.970Z,49.1
2023-03-23T13:26:46.236Z,49.1
2023-03-23T13:27:47.378Z,49.5
2023-03-23T13:28:51.346Z,49.7
2023-03-23T13:29:52.516Z,49.8
2023-03-23T13:30:53.683Z,50
2023-03-23T13:31:54.851Z,50.1
2023-03-23T13:32:58.132Z,50.2
2023-03-23T13:33:59.302Z,50.2
2023-03-23T13:35:00.478Z,50.3
2023-03-23T13:36:10.595Z,50.5
2023-03-23T13:37:14.557Z,50.6
2023-03-23T13:38:15.724Z,50.4
2023-03-23T13:39:16.897Z,50.2
2023-03-23T13:40:18.054Z,50.2
2023-03-23T13:41:19.080Z,50.5
2023-03-23T13:42:20.272Z,50.4
2023-03-23T13:43:21.417Z,50.5
2023-03-23T13:44:22.456Z,50.5
2023-03-23T13:45:23.626Z,50.5
2023-03-23T13:46:24.783Z,50.6
2023-03-23T13:47:25.957Z,50.7
2023-03-23T13:48:27.113Z,50.6
2023-03-23T13:49:28.126Z,50.4
2023-03-23T13:50:29.290Z,50.2